Time;durP1;ratioP1;P1;durP2;ratioP2;P2;SDS_P1;SDS_P2;PMS_P1;PMS_P2;Temp;Humidity;BMP_temperature;BMP_pressure;BME280_temperature;BME280_humidity;BME280_pressure;Samples;Min_cycle;Max_cycle;Signal;HPM_P1;HPM_P2
2023/09/17 00:00:23;;;;;;;686.95;567.10;;;;;;;;;;5069666;28;20490;-64
2023/09/17 00:02:49;;;;;;;673.88;562.30;;;;;;;;;;5072011;28;20044;-66
2023/09/17 00:05:16;;;;;;;674.25;561.35;;;;;;;;;;5068349;28;20098;-64
2023/09/17 00:07:43;;;;;;;673.45;555.70;;;;;;;;;;5049406;28;20567;-64
2023/09/17 00:10:11;;;;;;;683.90;555.78;;;;;;;;;;5050947;28;20410;-65
2023/09/17 00:12:37;;;;;;;682.22;569.75;;;;;;;;;;5047248;28;20478;-66
2023/09/17 00:15:05;;;;;;;685.10;568.55;;;;;;;;;;5053858;28;20048;-68
2023/09/17 00:17:32;;;;;;;674.67;565.85;;;;;;;;;;5054721;28;20481;-65
2023/09/17 00:19:59;;;;;;;682.40;570.30;;;;;;;;;;5067987;28;20056;-64
2023/09/17 00:22:25;;;;;;;670.45;556.80;;;;;;;;;;5067796;28;20037;-65
2023/09/17 00:24:52;;;;;;;679.75;569.92;;;;;;;;;;5064610;28;20056;-65
2023/09/17 00:27:19;;;;;;;718.97;567.38;;;;;;;;;;5051601;28;20693;-64
2023/09/17 00:29:45;;;;;;;671.50;568.15;;;;;;;;;;5071332;28;20048;-64
2023/09/17 00:32:12;;;;;;;680.05;561.80;;;;;;;;;;5067765;28;20052;-65
2023/09/17 00:34:38;;;;;;;670.58;550.72;;;;;;;;;;5041409;28;20041;-67
2023/09/17 00:37:07;;;;;;;661.90;548.03;;;;;;;;;;5053372;28;20058;-65
2023/09/17 00:39:34;;;;;;;677.92;550.88;;;;;;;;;;5065799;28;20146;-65
2023/09/17 00:42:01;;;;;;;673.28;550.22;;;;;;;;;;5054152;28;20160;-65
2023/09/17 00:44:28;;;;;;;676.15;544.40;;;;;;;;;;5068395;28;20494;-65
2023/09/17 00:46:56;;;;;;;669.63;550.47;;;;;;;;;;5053386;28;20041;-65
2023/09/17 00:49:23;;;;;;;683.50;554.20;;;;;;;;;;5061587;28;20532;-67
2023/09/17 00:51:49;;;;;;;667.35;543.33;;;;;;;;;;5067730;28;20052;-65
2023/09/17 00:54:16;;;;;;;722.38;551.55;;;;;;;;;;5069691;28;20044;-66
2023/09/17 00:56:43;;;;;;;680.47;550.10;;;;;;;;;;5071528;28;20410;-66
2023/09/17 00:59:10;;;;;;;667.03;538.15;;;;;;;;;;5069728;28;20040;-65
2023/09/17 01:01:37;;;;;;;668.08;540.78;;;;;;;;;;5068379;28;20044;-66
2023/09/17 01:04:04;;;;;;;685.47;556.40;;;;;;;;;;5068726;28;20048;-65
2023/09/17 01:06:31;;;;;;;671.30;536.83;;;;;;;;;;5048138;28;20548;-65
2023/09/17 01:08:58;;;;;;;678.63;543.75;;;;;;;;;;5071652;28;20098;-64
2023/09/17 01:11:25;;;;;;;672.17;535.45;;;;;;;;;;5053005;28;20075;-66
2023/09/17 01:13:58;;;;;;;676.45;537.30;;;;;;;;;;5048917;28;20132;-67
2023/09/17 01:16:26;;;;;;;671.22;537.95;;;;;;;;;;5069958;28;20068;-65
2023/09/17 01:18:53;;;;;;;668.42;525.30;;;;;;;;;;5041588;28;20589;-64
2023/09/17 01:21:25;;;;;;;703.40;552.83;;;;;;;;;;5069996;28;20449;-67
2023/09/17 01:24:08;;;;;;;667.30;532.58;;;;;;;;;;5062351;28;20049;-65
2023/09/17 01:26:37;;;;;;;660.58;503.20;;;;;;;;;;5048982;28;20098;-65
2023/09/17 01:29:04;;;;;;;660.45;527.50;;;;;;;;;;5063697;28;20045;-65
2023/09/17 01:31:34;;;;;;;672.47;526.88;;;;;;;;;;5052761;28;20052;-66
2023/09/17 01:34:01;;;;;;;676.55;536.88;;;;;;;;;;5052841;28;20058;-65
2023/09/17 01:36:34;;;;;;;668.33;522.03;;;;;;;;;;5050124;28;20065;-65
2023/09/17 01:39:05;;;;;;;680.40;524.70;;;;;;;;;;5051485;28;20067;-66
2023/09/17 01:41:33;;;;;;;666.83;519.65;;;;;;;;;;5068054;28;20052;-64
2023/09/17 01:44:03;;;;;;;668.78;517.25;;;;;;;;;;5068181;28;20469;-66
2023/09/17 01:46:31;;;;;;;671.53;527.88;;;;;;;;;;5067815;28;20039;-65
2023/09/17 01:48:58;;;;;;;667.67;520.17;;;;;;;;;;5059020;28;20078;-66
2023/09/17 01:51:25;;;;;;;683.88;527.90;;;;;;;;;;5069315;28;20041;-65
2023/09/17 01:53:52;;;;;;;668.63;516.80;;;;;;;;;;5051056;28;20572;-66
2023/09/17 01:56:18;;;;;;;659.55;504.33;;;;;;;;;;5068322;28;20045;-65
2023/09/17 01:58:45;;;;;;;667.80;517.72;;;;;;;;;;5048902;28;20532;-67
2023/09/17 02:01:13;;;;;;;1157.53;603.45;;;;;;;;;;5072119;22;20076;-66
2023/09/17 02:03:40;;;;;;;677.60;503.25;;;;;;;;;;5074058;28;20039;-62
2023/09/17 02:06:07;;;;;;;665.75;502.60;;;;;;;;;;5078946;28;20048;-62
2023/09/17 02:08:36;;;;;;;657.70;496.02;;;;;;;;;;5064983;28;20048;-62
2023/09/17 02:11:05;;;;;;;661.90;496.80;;;;;;;;;;5057359;28;20052;-62
2023/09/17 02:13:32;;;;;;;659.40;498.30;;;;;;;;;;5057203;28;20040;-63
2023/09/17 02:15:59;;;;;;;663.95;499.35;;;;;;;;;;5060438;28;20539;-62
2023/09/17 02:18:26;;;;;;;665.67;494.52;;;;;;;;;;5063716;28;20057;-63
2023/09/17 02:20:53;;;;;;;663.58;490.42;;;;;;;;;;5064922;28;20135;-62
2023/09/17 02:23:19;;;;;;;664.95;486.75;;;;;;;;;;5062402;28;20397;-62
2023/09/17 02:25:46;;;;;;;654.15;478.20;;;;;;;;;;5078089;28;20051;-62
2023/09/17 02:28:13;;;;;;;670.03;505.63;;;;;;;;;;5066819;28;20094;-62
2023/09/17 02:30:40;;;;;;;676.78;496.25;;;;;;;;;;5082300;28;20048;-63
2023/09/17 02:33:10;;;;;;;673.45;494.73;;;;;;;;;;5084078;28;20044;-64
2023/09/17 02:35:37;;;;;;;662.65;484.08;;;;;;;;;;5085195;28;20277;-62
2023/09/17 02:38:04;;;;;;;662.38;482.20;;;;;;;;;;5082636;28;20490;-63
2023/09/17 02:40:31;;;;;;;657.88;471.42;;;;;;;;;;5083666;28;20128;-63
2023/09/17 02:42:58;;;;;;;659.15;472.33;;;;;;;;;;5082971;28;20040;-62
2023/09/17 02:45:24;;;;;;;690.13;492.65;;;;;;;;;;5081345;28;20072;-64
2023/09/17 02:47:51;;;;;;;662.70;475.58;;;;;;;;;;5066524;28;20052;-64
2023/09/17 02:50:19;;;;;;;657.25;472.50;;;;;;;;;;5081997;28;20055;-63
2023/09/17 02:52:46;;;;;;;655.47;475.95;;;;;;;;;;5081039;28;20043;-63
2023/09/17 02:55:12;;;;;;;660.95;471.58;;;;;;;;;;5066228;28;20106;-63
2023/09/17 02:57:40;;;;;;;658.80;478.52;;;;;;;;;;5082888;28;20964;-64
2023/09/17 03:00:08;;;;;;;666.42;474.35;;;;;;;;;;5082714;28;20047;-65
2023/09/17 03:02:38;;;;;;;678.95;495.80;;;;;;;;;;5064542;28;20052;-62
2023/09/17 03:05:11;;;;;;;667.30;476.35;;;;;;;;;;5063128;28;20063;-64
2023/09/17 03:07:39;;;;;;;660.92;466.15;;;;;;;;;;5046770;28;20045;-64
2023/09/17 03:10:10;;;;;;;662.25;481.30;;;;;;;;;;5063352;28;20047;-67
2023/09/17 03:12:41;;;;;;;667.75;469.25;;;;;;;;;;5064329;28;20570;-62
2023/09/17 03:15:09;;;;;;;674.80;478.13;;;;;;;;;;5059652;28;20071;-64
2023/09/17 03:17:37;;;;;;;654.03;474.23;;;;;;;;;;5062455;28;20084;-65
2023/09/17 03:20:22;;;;;;;657.95;475.95;;;;;;;;;;5079915;28;20040;-63
2023/09/17 03:22:49;;;;;;;652.90;458.90;;;;;;;;;;5081204;28;20401;-63
2023/09/17 03:25:16;;;;;;;652.90;465.17;;;;;;;;;;5063151;28;20051;-63
2023/09/17 03:27:45;;;;;;;656.80;465.60;;;;;;;;;;5062902;28;20094;-62
2023/09/17 03:30:12;;;;;;;696.40;479.80;;;;;;;;;;5080890;28;20071;-64
2023/09/17 03:32:40;;;;;;;655.97;471.98;;;;;;;;;;5085901;28;20042;-64
2023/09/17 03:35:28;;;;;;;664.63;466.55;;;;;;;;;;5074886;28;20053;-63
2023/09/17 03:37:55;;;;;;;660.13;470.65;;;;;;;;;;5066706;28;20040;-63
2023/09/17 03:40:21;;;;;;;662.22;469.25;;;;;;;;;;5075268;28;20036;-64
2023/09/17 03:42:48;;;;;;;669.90;458.30;;;;;;;;;;5080715;28;20604;-62
2023/09/17 03:45:15;;;;;;;681.10;479.20;;;;;;;;;;5077602;28;20494;-63
2023/09/17 03:47:43;;;;;;;663.33;468.05;;;;;;;;;;5063289;28;20048;-64
2023/09/17 03:50:13;;;;;;;661.65;471.60;;;;;;;;;;5063063;28;20397;-63
2023/09/17 03:52:42;;;;;;;650.85;459.38;;;;;;;;;;5064195;28;20086;-62
2023/09/17 03:55:09;;;;;;;652.08;456.92;;;;;;;;;;5046493;28;20044;-63
2023/09/17 03:57:36;;;;;;;655.28;463.92;;;;;;;;;;5062098;28;20530;-65
2023/09/17 04:00:07;;;;;;;653.03;453.52;;;;;;;;;;5050102;28;20064;-64
2023/09/17 04:02:42;;;;;;;650.03;460.13;;;;;;;;;;5061407;28;20383;-61
2023/09/17 04:05:16;;;;;;;649.78;457.42;;;;;;;;;;5082949;28;20060;-64
2023/09/17 04:07:44;;;;;;;665.47;466.45;;;;;;;;;;5062985;28;20044;-62
2023/09/17 04:10:12;;;;;;;667.38;472.15;;;;;;;;;;5062945;28;20047;-61
2023/09/17 04:12:40;;;;;;;673.40;476.98;;;;;;;;;;5062613;28;20478;-62
2023/09/17 04:15:13;;;;;;;660.67;469.15;;;;;;;;;;5065786;28;20048;-64
2023/09/17 04:17:40;;;;;;;658.63;467.02;;;;;;;;;;5082710;28;20040;-62
2023/09/17 04:20:10;;;;;;;655.80;457.98;;;;;;;;;;5047726;28;20040;-63
2023/09/17 04:22:37;;;;;;;665.92;469.50;;;;;;;;;;5062900;28;20060;-62
2023/09/17 04:25:08;;;;;;;657.47;468.58;;;;;;;;;;5079255;28;20098;-62
2023/09/17 04:27:36;;;;;;;669.13;481.10;;;;;;;;;;5062660;28;20472;-64
2023/09/17 04:30:05;;;;;;;655.15;472.02;;;;;;;;;;5082266;28;20052;-63
2023/09/17 04:32:37;;;;;;;654.38;460.65;;;;;;;;;;5061763;28;20046;-63
2023/09/17 04:35:05;;;;;;;665.65;478.60;;;;;;;;;;5062794;28;20045;-63
2023/09/17 04:37:33;;;;;;;660.92;478.75;;;;;;;;;;5060559;28;20052;-63
2023/09/17 04:39:59;;;;;;;661.70;479.40;;;;;;;;;;5058013;28;20068;-62
2023/09/17 04:42:28;;;;;;;715.25;475.10;;;;;;;;;;5060805;28;20040;-64
2023/09/17 04:44:55;;;;;;;668.92;478.42;;;;;;;;;;5062256;28;20041;-64
2023/09/17 04:47:25;;;;;;;667.53;491.92;;;;;;;;;;5060072;28;20040;-62
2023/09/17 04:49:51;;;;;;;657.97;487.08;;;;;;;;;;5059729;28;20135;-64
2023/09/17 04:52:18;;;;;;;672.65;494.00;;;;;;;;;;5061346;28;20494;-62
2023/09/17 04:54:47;;;;;;;678.50;514.00;;;;;;;;;;5062035;28;20058;-62
2023/09/17 04:57:14;;;;;;;695.97;506.80;;;;;;;;;;5044301;28;20433;-62
2023/09/17 04:59:41;;;;;;;676.10;516.72;;;;;;;;;;5060195;28;20053;-62
2023/09/17 05:02:08;;;;;;;690.08;523.35;;;;;;;;;;5071886;28;20105;-60
2023/09/17 05:04:35;;;;;;;664.53;516.75;;;;;;;;;;5060774;28;20044;-62
2023/09/17 05:07:03;;;;;;;672.17;515.83;;;;;;;;;;5061371;28;20441;-63
2023/09/17 05:09:30;;;;;;;685.72;529.47;;;;;;;;;;5061345;28;20126;-62
2023/09/17 05:11:57;;;;;;;680.33;525.90;;;;;;;;;;5063262;28;20044;-62
2023/09/17 05:14:24;;;;;;;684.33;548.88;;;;;;;;;;5060639;28;20055;-63
2023/09/17 05:16:51;;;;;;;692.35;547.03;;;;;;;;;;5078523;28;20834;-62
2023/09/17 05:19:18;;;;;;;682.85;535.83;;;;;;;;;;5082348;28;20496;-62
2023/09/17 05:21:44;;;;;;;676.33;540.63;;;;;;;;;;5058575;28;20072;-62
2023/09/17 05:24:11;;;;;;;705.95;552.38;;;;;;;;;;5058321;28;20049;-63
2023/09/17 05:26:38;;;;;;;692.95;561.80;;;;;;;;;;5082477;28;20036;-63
2023/09/17 05:29:05;;;;;;;675.42;556.03;;;;;;;;;;5060686;28;20047;-63
2023/09/17 05:31:32;;;;;;;678.47;567.60;;;;;;;;;;5063735;28;20640;-63
2023/09/17 05:34:00;;;;;;;682.67;558.78;;;;;;;;;;5057228;28;20413;-64
2023/09/17 05:36:27;;;;;;;706.55;585.38;;;;;;;;;;5060624;28;20135;-64
2023/09/17 05:38:53;;;;;;;689.28;586.50;;;;;;;;;;5082941;28;20451;-61
2023/09/17 05:41:20;;;;;;;694.10;590.95;;;;;;;;;;5078157;28;20094;-62
2023/09/17 05:43:46;;;;;;;683.10;584.72;;;;;;;;;;5059405;28;20497;-63
2023/09/17 05:46:13;;;;;;;709.47;587.35;;;;;;;;;;5080251;28;20056;-62
2023/09/17 05:48:42;;;;;;;696.65;592.70;;;;;;;;;;5061175;28;20131;-63
2023/09/17 05:51:08;;;;;;;691.10;597.28;;;;;;;;;;5079861;28;20044;-62
2023/09/17 05:53:35;;;;;;;686.45;600.53;;;;;;;;;;5063918;28;20489;-63
2023/09/17 05:56:04;;;;;;;698.53;611.15;;;;;;;;;;5060958;28;20048;-63
2023/09/17 05:58:32;;;;;;;702.75;605.70;;;;;;;;;;5062482;28;20040;-63
2023/09/17 06:00:59;;;;;;;711.50;620.20;;;;;;;;;;5084192;28;20048;-64
2023/09/17 06:03:26;;;;;;;783.42;662.70;;;;;;;;;;5064166;28;20057;-62
2023/09/17 06:05:55;;;;;;;728.92;646.10;;;;;;;;;;5082862;28;20044;-64
2023/09/17 06:08:22;;;;;;;745.92;656.33;;;;;;;;;;5041543;28;20044;-65
2023/09/17 06:10:50;;;;;;;732.58;652.85;;;;;;;;;;5046894;28;20052;-63
2023/09/17 06:13:17;;;;;;;806.53;721.53;;;;;;;;;;5077049;28;20127;-62
2023/09/17 06:15:45;;;;;;;868.58;779.65;;;;;;;;;;5063767;28;20397;-64
2023/09/17 06:18:16;;;;;;;878.83;792.13;;;;;;;;;;5064102;28;20117;-63
2023/09/17 06:20:46;;;;;;;921.83;836.15;;;;;;;;;;5077310;28;20044;-62
2023/09/17 06:23:13;;;;;;;934.85;848.63;;;;;;;;;;5045347;28;20131;-63
2023/09/17 06:25:40;;;;;;;964.28;875.97;;;;;;;;;;5080714;28;20039;-63
2023/09/17 06:28:08;;;;;;;986.88;898.50;;;;;;;;;;5064428;28;20508;-65
2023/09/17 06:30:34;;;;;;;1008.85;919.38;;;;;;;;;;5083147;28;20040;-60
2023/09/17 06:33:03;;;;;;;1034.43;942.72;;;;;;;;;;5081278;28;20052;-62
2023/09/17 06:35:32;;;;;;;1048.53;956.58;;;;;;;;;;5062751;28;20406;-62
2023/09/17 06:37:59;;;;;;;1061.30;967.90;;;;;;;;;;5083025;28;20044;-62
2023/09/17 06:40:26;;;;;;;1073.20;974.30;;;;;;;;;;5060479;28;20056;-62
2023/09/17 06:42:53;;;;;;;1086.13;990.35;;;;;;;;;;5063560;28;20040;-62
2023/09/17 06:45:21;;;;;;;1095.53;995.63;;;;;;;;;;5064533;28;20105;-62
2023/09/17 06:47:48;;;;;;;1090.60;995.33;;;;;;;;;;5081714;28;20063;-62
2023/09/17 06:50:14;;;;;;;1097.10;998.40;;;;;;;;;;5080421;28;20064;-63
2023/09/17 06:52:41;;;;;;;1098.55;998.63;;;;;;;;;;5075366;28;20497;-63
2023/09/17 06:55:09;;;;;;;1114.97;999.90;;;;;;;;;;5084945;28;20040;-64
2023/09/17 06:57:36;;;;;;;1118.05;999.90;;;;;;;;;;5063474;28;20079;-62
2023/09/17 07:00:06;;;;;;;1123.38;999.90;;;;;;;;;;5079007;28;20048;-61
2023/09/17 07:02:32;;;;;;;1095.78;999.05;;;;;;;;;;5083992;28;20048;-62
2023/09/17 07:05:01;;;;;;;1081.97;981.88;;;;;;;;;;5080727;28;20055;-63
2023/09/17 07:07:27;;;;;;;1082.13;987.80;;;;;;;;;;5062906;28;20489;-63
2023/09/17 07:09:54;;;;;;;1070.18;976.50;;;;;;;;;;5081536;28;20106;-65
2023/09/17 07:12:21;;;;;;;1054.63;958.70;;;;;;;;;;5081155;28;20095;-62
2023/09/17 07:14:47;;;;;;;1036.78;944.85;;;;;;;;;;5085228;28;20776;-63
2023/09/17 07:17:14;;;;;;;1024.68;933.78;;;;;;;;;;5079263;28;20051;-62
2023/09/17 07:19:41;;;;;;;1021.65;930.53;;;;;;;;;;5065266;28;20552;-62
2023/09/17 07:22:11;;;;;;;1011.53;921.70;;;;;;;;;;5081016;28;20036;-61
2023/09/17 07:24:39;;;;;;;992.22;903.35;;;;;;;;;;5079920;28;20107;-63
2023/09/17 07:27:06;;;;;;;997.33;908.17;;;;;;;;;;5065969;28;20051;-62
2023/09/17 07:29:32;;;;;;;975.72;888.92;;;;;;;;;;5081694;28;20041;-61
2023/09/17 07:31:59;;;;;;;972.95;885.25;;;;;;;;;;5063719;28;20039;-64
2023/09/17 07:34:26;;;;;;;969.90;881.70;;;;;;;;;;5082932;28;20041;-62
2023/09/17 07:36:54;;;;;;;974.58;885.40;;;;;;;;;;5060422;28;20048;-62
2023/09/17 07:39:21;;;;;;;976.78;886.03;;;;;;;;;;5058067;28;20044;-62
2023/09/17 07:41:48;;;;;;;948.70;862.75;;;;;;;;;;5078676;28;20124;-62
2023/09/17 07:44:14;;;;;;;946.45;860.50;;;;;;;;;;5082227;28;20400;-62
2023/09/17 07:46:41;;;;;;;946.17;860.28;;;;;;;;;;5078340;28;20130;-63
2023/09/17 07:49:08;;;;;;;939.63;853.15;;;;;;;;;;5080743;28;20047;-62
2023/09/17 07:51:34;;;;;;;950.13;862.63;;;;;;;;;;5080664;28;20045;-62
2023/09/17 07:54:01;;;;;;;931.95;845.47;;;;;;;;;;5060585;28;20044;-62
2023/09/17 07:56:28;;;;;;;935.35;848.10;;;;;;;;;;5078509;28;20035;-62
2023/09/17 07:58:54;;;;;;;931.22;845.08;;;;;;;;;;5051154;28;20051;-62
2023/09/17 08:01:21;;;;;;;944.67;854.75;;;;;;;;;;5077317;28;20052;-62
2023/09/17 08:03:48;;;;;;;925.40;838.20;;;;;;;;;;5100665;28;20043;-62
2023/09/17 08:06:14;;;;;;;936.42;846.03;;;;;;;;;;5092787;28;20472;-65
2023/09/17 08:08:45;;;;;;;954.83;863.47;;;;;;;;;;5091940;28;20078;-64
2023/09/17 08:11:15;;;;;;;958.70;867.10;;;;;;;;;;5091747;28;20046;-65
2023/09/17 08:13:42;;;;;;;924.15;831.72;;;;;;;;;;5072918;28;20040;-66
2023/09/17 08:16:09;;;;;;;935.28;846.72;;;;;;;;;;5074655;28;20127;-62
2023/09/17 08:18:35;;;;;;;946.83;857.08;;;;;;;;;;5097720;28;20083;-64
2023/09/17 08:21:04;;;;;;;937.70;852.00;;;;;;;;;;5096581;28;20045;-62
2023/09/17 08:23:30;;;;;;;945.97;859.38;;;;;;;;;;5080549;28;20044;-62
2023/09/17 08:25:57;;;;;;;932.30;846.65;;;;;;;;;;5091547;28;20059;-62
2023/09/17 08:28:24;;;;;;;933.22;846.75;;;;;;;;;;5096350;28;20485;-64
2023/09/17 08:30:51;;;;;;;943.10;855.17;;;;;;;;;;5100353;28;20098;-62
2023/09/17 08:33:17;;;;;;;942.60;852.85;;;;;;;;;;5091766;28;20481;-63
2023/09/17 08:35:44;;;;;;;940.92;854.88;;;;;;;;;;5087139;28;20390;-63
2023/09/17 08:38:11;;;;;;;940.60;850.15;;;;;;;;;;5101039;28;20059;-63
2023/09/17 08:40:38;;;;;;;944.72;851.97;;;;;;;;;;5097633;28;20046;-62
2023/09/17 08:43:04;;;;;;;950.33;862.63;;;;;;;;;;5096908;28;20119;-64
2023/09/17 08:45:33;;;;;;;950.22;862.40;;;;;;;;;;5095981;28;20431;-64
2023/09/17 08:48:00;;;;;;;952.17;864.63;;;;;;;;;;5098016;28;20047;-63
2023/09/17 08:50:28;;;;;;;956.15;868.38;;;;;;;;;;5080587;28;20058;-61
2023/09/17 08:52:59;;;;;;;946.83;859.72;;;;;;;;;;5083085;28;20043;-62
2023/09/17 08:55:26;;;;;;;964.05;875.53;;;;;;;;;;5099931;28;20042;-62
2023/09/17 08:57:55;;;;;;;953.47;866.17;;;;;;;;;;5100879;28;20051;-62
2023/09/17 09:00:22;;;;;;;969.88;876.88;;;;;;;;;;5101852;28;20037;-64
2023/09/17 09:02:51;;;;;;;963.00;875.50;;;;;;;;;;5101997;28;20421;-62
2023/09/17 09:05:22;;;;;;;959.13;872.20;;;;;;;;;;5077999;28;20084;-62
2023/09/17 09:07:49;;;;;;;975.95;887.13;;;;;;;;;;5099432;28;20481;-64
2023/09/17 09:10:18;;;;;;;970.13;882.05;;;;;;;;;;5101551;28;20047;-62
2023/09/17 09:12:45;;;;;;;972.72;884.58;;;;;;;;;;5082484;28;20526;-63
2023/09/17 09:15:12;;;;;;;974.58;885.40;;;;;;;;;;5082636;28;20044;-62
2023/09/17 09:17:39;;;;;;;970.17;882.10;;;;;;;;;;5101854;28;20567;-62
2023/09/17 09:20:10;;;;;;;997.25;888.30;;;;;;;;;;5096144;28;20488;-62
2023/09/17 09:22:37;;;;;;;995.60;886.78;;;;;;;;;;5096611;28;20044;-63
2023/09/17 09:25:06;;;;;;;973.03;884.72;;;;;;;;;;5081568;28;20050;-62
2023/09/17 09:27:32;;;;;;;992.17;902.13;;;;;;;;;;5082611;28;20056;-62
2023/09/17 09:29:59;;;;;;;984.25;895.83;;;;;;;;;;5100856;28;20512;-61
2023/09/17 09:32:26;;;;;;;982.33;893.67;;;;;;;;;;5080492;28;20076;-63
2023/09/17 09:34:53;;;;;;;1002.15;912.53;;;;;;;;;;5102290;28;20044;-60
2023/09/17 09:37:23;;;;;;;1135.07;897.40;;;;;;;;;;5104453;28;20478;-59
2023/09/17 09:39:49;;;;;;;988.60;898.58;;;;;;;;;;5082351;28;20052;-59
2023/09/17 09:42:16;;;;;;;989.38;896.38;;;;;;;;;;5104011;28;20058;-61
2023/09/17 09:44:43;;;;;;;1000.15;904.53;;;;;;;;;;5101119;28;20521;-60
2023/09/17 09:47:13;;;;;;;989.88;901.20;;;;;;;;;;5083355;28;20047;-60
2023/09/17 09:49:40;;;;;;;1006.53;917.38;;;;;;;;;;5103358;28;20028;-60
2023/09/17 09:52:07;;;;;;;992.40;903.35;;;;;;;;;;5089183;28;20098;-60
2023/09/17 09:54:36;;;;;;;996.58;903.40;;;;;;;;;;5106027;28;20089;-60
2023/09/17 09:57:04;;;;;;;994.13;901.28;;;;;;;;;;5087956;28;20040;-59
2023/09/17 09:59:36;;;;;;;1006.45;916.90;;;;;;;;;;5069939;28;20062;-59
2023/09/17 10:02:03;;;;;;;1003.30;913.75;;;;;;;;;;5087399;28;20056;-61
2023/09/17 10:04:30;;;;;;;1016.22;925.88;;;;;;;;;;5104381;28;20040;-60
2023/09/17 10:06:58;;;;;;;1018.28;916.58;;;;;;;;;;5107857;28;20044;-60
2023/09/17 10:09:27;;;;;;;1013.08;921.33;;;;;;;;;;5088632;28;20131;-60
2023/09/17 10:11:54;;;;;;;1019.72;929.22;;;;;;;;;;5103838;28;20052;-60
2023/09/17 10:14:21;;;;;;;1025.05;934.10;;;;;;;;;;5088520;28;20036;-60
2023/09/17 10:16:48;;;;;;;1029.00;931.60;;;;;;;;;;5103813;28;20550;-60
2023/09/17 10:19:21;;;;;;;1032.10;938.75;;;;;;;;;;5102880;28;20044;-60
2023/09/17 10:21:48;;;;;;;1038.23;947.13;;;;;;;;;;5075405;28;20040;-60
2023/09/17 10:24:17;;;;;;;1038.97;944.70;;;;;;;;;;5105656;28;20051;-61
2023/09/17 10:26:44;;;;;;;1030.60;940.25;;;;;;;;;;5090001;28;20052;-60
2023/09/17 10:29:15;;;;;;;1027.95;935.28;;;;;;;;;;5106868;28;20040;-61
2023/09/17 10:31:42;;;;;;;1042.25;950.15;;;;;;;;;;5089154;28;20078;-59
2023/09/17 10:34:09;;;;;;;1035.85;943.50;;;;;;;;;;5098902;28;20059;-60
2023/09/17 10:36:38;;;;;;;1045.55;948.75;;;;;;;;;;5086663;28;20040;-61
2023/09/17 10:39:06;;;;;;;1057.10;948.75;;;;;;;;;;5090276;28;20048;-60
2023/09/17 10:41:36;;;;;;;1043.88;952.30;;;;;;;;;;5091052;28;20040;-59
2023/09/17 10:44:03;;;;;;;1044.88;953.42;;;;;;;;;;5103968;28;20127;-59
2023/09/17 10:46:31;;;;;;;1040.22;947.50;;;;;;;;;;5106819;28;20119;-60
2023/09/17 10:48:58;;;;;;;1043.93;951.35;;;;;;;;;;5103956;28;20040;-61
2023/09/17 10:51:28;;;;;;;1057.15;961.13;;;;;;;;;;5106963;28;20040;-62
2023/09/17 10:53:55;;;;;;;1056.00;963.67;;;;;;;;;;5079019;28;20044;-62
2023/09/17 10:56:22;;;;;;;1110.07;946.78;;;;;;;;;;5102392;28;20074;-60
2023/09/17 10:58:49;;;;;;;1043.50;952.42;;;;;;;;;;5097812;28;20457;-60
2023/09/17 11:01:37;;;;;;;1053.50;961.28;;;;;;;;;;5080844;28;20043;-60
2023/09/17 11:04:13;;;;;;;1040.63;949.17;;;;;;;;;;5077270;28;20051;-60
2023/09/17 11:06:40;;;;;;;1042.68;952.10;;;;;;;;;;5101727;28;20044;-60
2023/09/17 11:09:08;;;;;;;1050.63;959.15;;;;;;;;;;5103695;28;20040;-60
2023/09/17 11:11:35;;;;;;;1045.38;954.05;;;;;;;;;;5085210;28;20600;-59
2023/09/17 11:14:04;;;;;;;1045.72;952.63;;;;;;;;;;5080615;28;20055;-61
2023/09/17 11:16:32;;;;;;;1058.97;965.17;;;;;;;;;;5084374;28;20044;-61
2023/09/17 11:19:13;;;;;;;1057.90;964.33;;;;;;;;;;5082916;28;20131;-60
2023/09/17 11:21:46;;;;;;;1056.63;963.10;;;;;;;;;;5081047;28;20040;-59
2023/09/17 11:24:13;;;;;;;;;;;;;;;;;;5098009;28;20036;-61
2023/09/17 11:26:44;;;;;;;1044.32;951.22;;;;;;;;;;5080192;28;19920;-60
2023/09/17 11:29:11;;;;;;;1047.65;954.58;;;;;;;;;;5093701;28;20068;-61
2023/09/17 11:32:02;;;;;;;1061.82;969.92;;;;;;;;;;5100174;28;20071;-60
2023/09/17 11:34:30;;;;;;;1063.63;964.67;;;;;;;;;;5093346;28;20048;-61
2023/09/17 11:36:57;;;;;;;1057.80;965.97;;;;;;;;;;5081751;28;20048;-61
2023/09/17 11:39:24;;;;;;;1069.57;973.05;;;;;;;;;;5102109;28;20067;-61
2023/09/17 11:41:53;;;;;;;1074.32;977.10;;;;;;;;;;5102334;28;20079;-61
2023/09/17 11:44:21;;;;;;;1067.15;974.13;;;;;;;;;;5099078;28;20047;-61
2023/09/17 11:46:48;;;;;;;1066.10;972.50;;;;;;;;;;5095703;28;20055;-60
2023/09/17 11:49:16;;;;;;;1068.25;974.97;;;;;;;;;;5099891;28;20075;-62
2023/09/17 11:51:43;;;;;;;1073.55;979.28;;;;;;;;;;5082601;28;20050;-63
2023/09/17 11:54:15;;;;;;;1078.22;984.08;;;;;;;;;;5102335;28;20078;-61
2023/09/17 11:56:46;;;;;;;1078.88;981.55;;;;;;;;;;5103701;28;20386;-62
2023/09/17 11:59:15;;;;;;;1084.22;989.78;;;;;;;;;;5100925;28;20043;-62
2023/09/17 12:01:46;;;;;;;1073.30;979.95;;;;;;;;;;5083852;28;20463;-60
2023/09/17 12:04:13;;;;;;;1078.78;985.65;;;;;;;;;;5084801;28;20050;-60
2023/09/17 12:06:44;;;;;;;1097.35;996.08;;;;;;;;;;5081564;28;20044;-61
2023/09/17 12:09:17;;;;;;;1117.10;979.70;;;;;;;;;;5080980;28;20078;-61
2023/09/17 12:11:44;;;;;;;1077.22;982.65;;;;;;;;;;5069209;28;20037;-61
2023/09/17 12:14:12;;;;;;;1091.65;995.40;;;;;;;;;;5061810;28;20413;-61
2023/09/17 12:16:39;;;;;;;1079.53;986.05;;;;;;;;;;5082433;28;20047;-61
2023/09/17 12:19:06;;;;;;;1089.03;993.28;;;;;;;;;;5081359;28;20043;-62
2023/09/17 12:21:48;;;;;;;1077.10;981.95;;;;;;;;;;5095741;28;20035;-62
2023/09/17 12:24:19;;;;;;;1077.60;983.22;;;;;;;;;;5080882;28;20566;-64
2023/09/17 12:26:58;;;;;;;1073.43;979.17;;;;;;;;;;5099541;28;20476;-60
2023/09/17 12:29:25;;;;;;;1076.80;983.45;;;;;;;;;;5097792;28;20546;-60
2023/09/17 12:31:52;;;;;;;1081.82;987.40;;;;;;;;;;5097333;28;20394;-60
2023/09/17 12:34:19;;;;;;;1086.15;992.58;;;;;;;;;;5093681;28;20097;-60
2023/09/17 12:36:46;;;;;;;1075.05;979.67;;;;;;;;;;5101635;28;20051;-61
2023/09/17 12:39:13;;;;;;;1085.85;989.65;;;;;;;;;;5097713;28;20044;-65
2023/09/17 12:41:39;;;;;;;1082.68;985.80;;;;;;;;;;5098447;28;20488;-61
2023/09/17 12:44:07;;;;;;;1080.53;987.38;;;;;;;;;;5080642;28;20386;-61
2023/09/17 12:46:33;;;;;;;1087.78;994.03;;;;;;;;;;5098142;28;20040;-61
2023/09/17 12:49:00;;;;;;;1094.15;996.88;;;;;;;;;;5099514;28;20469;-60
2023/09/17 12:51:27;;;;;;;1101.40;999.10;;;;;;;;;;5099466;28;20043;-60
2023/09/17 12:53:54;;;;;;;1082.28;988.20;;;;;;;;;;5102907;28;20063;-62
2023/09/17 12:56:21;;;;;;;1089.65;994.72;;;;;;;;;;5076304;28;20048;-60
2023/09/17 12:58:48;;;;;;;1086.40;992.38;;;;;;;;;;5094123;28;20039;-61
2023/09/17 13:01:15;;;;;;;1080.07;987.15;;;;;;;;;;5098585;28;20123;-61
2023/09/17 13:03:58;;;;;;;1085.53;987.58;;;;;;;;;;5094283;28;20056;-61
2023/09/17 13:06:34;;;;;;;1090.20;988.75;;;;;;;;;;5079890;28;20117;-63
2023/09/17 13:09:02;;;;;;;1070.45;977.83;;;;;;;;;;5085384;28;20489;-63
2023/09/17 13:11:29;;;;;;;1084.70;987.83;;;;;;;;;;5100963;28;20050;-61
2023/09/17 13:13:56;;;;;;;1083.47;990.33;;;;;;;;;;5100143;28;20104;-62
2023/09/17 13:16:23;;;;;;;1082.15;986.88;;;;;;;;;;5099985;28;20047;-62
2023/09/17 13:18:50;;;;;;;1074.82;981.22;;;;;;;;;;5098851;28;20035;-62
2023/09/17 13:21:17;;;;;;;1081.80;987.78;;;;;;;;;;5100146;28;20512;-61
2023/09/17 13:23:44;;;;;;;1070.00;976.55;;;;;;;;;;5084698;28;20054;-61
2023/09/17 13:26:10;;;;;;;1073.72;980.72;;;;;;;;;;5098571;28;20032;-61
2023/09/17 13:28:37;;;;;;;1077.55;981.45;;;;;;;;;;5096386;28;20105;-63
2023/09/17 13:31:05;;;;;;;1076.75;982.50;;;;;;;;;;5084762;28;20584;-61
2023/09/17 13:33:32;;;;;;;1082.43;983.17;;;;;;;;;;5097053;28;20043;-61
2023/09/17 13:35:59;;;;;;;1068.68;974.45;;;;;;;;;;5084476;28;20120;-60
2023/09/17 13:38:26;;;;;;;1084.07;990.15;;;;;;;;;;5101724;28;20508;-61
2023/09/17 13:40:53;;;;;;;1077.68;983.08;;;;;;;;;;5097475;28;20035;-60
2023/09/17 13:43:20;;;;;;;1071.80;978.30;;;;;;;;;;5082710;28;20484;-61
2023/09/17 13:45:53;;;;;;;1079.57;984.50;;;;;;;;;;5081748;28;20053;-61
2023/09/17 13:48:24;;;;;;;1081.88;979.85;;;;;;;;;;5099745;28;20083;-60
2023/09/17 13:50:50;;;;;;;1067.28;974.28;;;;;;;;;;5100847;28;20073;-61
2023/09/17 13:53:18;;;;;;;1070.47;978.40;;;;;;;;;;5099652;28;20055;-61